level 5
5550 XP
Théo Maire
En me levant ce vendredi matin je n'arrivais pas à voir le bout de ma ruelle .. je me suis dit :"ça sera un jour sans" ! Eh non .. 14h la météo est parfaite à l'exception d'une couche de nuage de 4000 à 7000 ft .. Que demander de mieux ?



En arrivant à Habsheim à 14h je prend le dernier METAR de LFSB (Bâle) :
LFSB 241300Z 11003KT 9999 FEW043 SCT055 BKN073 03/01 Q1015 NOSIG

J'embarque donc sur le C152 F-GJRZ pour un vol local secteur ouest (au-dessus des Vosges ), le contrôle bien sympathique me laisse monter au FL085 ..


0
0


On arrive en haut .. Le chauffage dans la cabine est malheureusement cassé .. je lis une température extérieur de -15°C .. Il fait froid mais le spectacle en vaut le coup :


0
0

0
Le Grand Ballon d'Alsace (point culminant des Vosges 1424m):
0

Après plus d'une heure de vol il est déjà temps de redescendre .. Le soleil nous manque déjà, on ne voit plus que quelques rayons :


0

Bon vols !
Steff A - Samedi 25 janvier 2014 à 16:45
Superbe ! J'adore la 2ème et celle avec la vue sur l'arrière de l'avion
David TOUAIBI - Jeudi 30 janvier 2014 à 15:20
magnifique !
Grégoire Sankoff - Samedi 01 février 2014 à 14:19
Waoow ! Magnifique le On Top !
Justine Reinbold - Jeudi 30 octobre 2014 à 23:20
Salut, tu prends tes photos avec quelle appareil ? Elles sont top